• Join FlightAware (Why Join?)
  • Login
  • US Flag 
03:13AM EDT


 

Airport Tracker/Info


-or-


 

Live Flight TrackerFlight Track Log ✈ DAL3974 ✈ 25-Apr-2013 ✈ KDTW - KMHT

Flight Track Log - Related Links

Times and Time Zones

All times are in EDT time to prevent confusion due to time zone crossing. See the DAL3974 flight status page for this flight to view local times or setup timezone preferences in your user account.

Time Position Orientation Groundspeed Altitude Reporting Facility
EDT Latitude Longitude Course Direction KTS MPH feet Rate Location/Type
08:05PM 42.2017 -83.3583 94° East 155 178 1,300  Level Cleveland Center
08:06PM 42.1600 -83.3508 172° South 212 244 2,700 1,980 Climbing Cleveland Center
08:07PM 42.1019 -83.3342 168° South 231 266 5,000 2,400 Climbing Cleveland Center
08:08PM 42.0492 -83.2817 144° Southeast 297 342 7,400 2,640 Climbing Cleveland Center
08:09PM 42.3142 -82.7247 78° East  Level FlightAware Approximate
08:09PM 42.0569 -83.2092 82° East 304 350 8,900  Level Cleveland Center
08:10PM 42.3364 -82.5651 77° East  Level FlightAware Approximate
08:11PM 42.3646 -82.4113 94° East  Level FlightAware Approximate
08:11PM 42.1364 -83.0136 61° Northeast 312 359 12,400  Level Cleveland Center
08:12PM 42.1847 -82.8922 62° Northeast 337 388 14,200 1,740 Climbing Cleveland Center
08:13PM 42.2350 -82.7706 61° Northeast 355 409 16,000 1,740 Climbing Cleveland Center
08:14PM 42.2875 -82.6461 60° Northeast 371 427 17,700 1,500 Climbing Cleveland Center
08:15PM 42.3397 -82.5131 62° Northeast 379 436 19,000 1,260 Climbing Cleveland Center
08:16PM 42.3650 -82.3706 76° East 385 443 20,300 1,200 Climbing Cleveland Center
08:17PM 42.3569 -82.2100 94° East 405 466 21,400 1,200 Climbing Cleveland Center
08:18PM 42.3508 -82.0497 93° East 416 479 22,700 1,200 Climbing Cleveland Center
08:19PM 42.3444 -81.8894 93° East 427 491 23,800 1,020 Climbing Cleveland Center
08:20PM 42.3358 -81.7094 94° East 433 498 24,800 960 Climbing Cleveland Center
08:21PM 42.3269 -81.5492 94° East 433 498 25,800 960 Climbing Cleveland Center
08:22PM 42.3197 -81.3864 93° East 433 498 26,800 960 Climbing Cleveland Center
08:23PM 42.3125 -81.2261 93° East 433 498 27,800 600 Climbing Cleveland Center
08:24PM 42.3028 -81.0575 94° East 433 498 28,000 60 Climbing Cleveland Center
08:25PM 42.2953 -80.8864 93° East 448 516 28,000  Level Cleveland Center
08:26PM 42.2872 -80.7150 94° East 458 527 28,000  Level Cleveland Center
08:27PM 42.2767 -80.5522 95° East 473 544 28,000  Level Cleveland Center
08:28PM 42.2661 -80.3728 94° East 481 554 28,100 480 Climbing Cleveland Center
08:29PM 42.2575 -80.1933 94° East 481 554 29,000 660 Climbing Cleveland Center
08:30PM 42.2461 -80.0167 95° East 481 554 29,500 480 Climbing Cleveland Center
08:31PM 42.2347 -79.8261 95° East 476 548 30,000 480 Climbing Cleveland Center
08:32PM 42.2231 -79.6494 95° East 476 548 30,500 480 Climbing Cleveland Center
08:33PM 42.2111 -79.4758 95° East 466 536 31,000 240 Climbing Cleveland Center
08:34PM 42.2008 -79.2994 94° East 466 536 31,000  Level Cleveland Center
08:35PM 42.1906 -79.1231 94° East 466 536 31,000  Level Cleveland Center
08:36PM 42.2089 -78.9517 82° East 460 529 31,000  Level Cleveland Center
08:37PM 42.2336 -78.7828 79° East 453 521 31,000  Level Cleveland Center
08:38PM 42.2536 -78.6139 81° East 453 521 31,000  Level Cleveland Center
08:39PM 42.2758 -78.4447 80° East 453 521 31,000  Level Cleveland Center
08:40PM 42.2953 -78.2731 81° East 453 521 31,000  Level Cleveland Center
08:41PM 42.3169 -78.1064 80° East 453 521 31,000  Level Cleveland Center
08:42PM 42.3361 -77.9372 81° East 453 521 31,000  Level Cleveland Center
08:43PM 42.3569 -77.7619 81° East 453 521 31,000  Level Cleveland Center
08:44PM 42.3739 -77.6067 82° East 459 528 31,000  Level Cleveland Center
08:46PM 42.4219 -77.1886 81° East 453 521 31,000  Level Boston Center
08:47PM 42.4417 -77.0128 81° East 464 534 31,000  Level Boston Center
08:48PM 42.4611 -76.8367 81° East 469 540 31,000  Level Boston Center
08:49PM 42.4783 -76.6606 82° East 469 540 31,000  Level Boston Center
08:50PM 42.4972 -76.4842 82° East 469 540 31,000  Level Boston Center
08:51PM 42.5158 -76.3081 82° East 469 540 31,000  Level Boston Center
08:52PM 42.5350 -76.1119 82° East 475 547 31,000 -60 Level Boston Center
08:53PM 42.5550 -75.9383 81° East 475 547 30,900  Descending Boston Center
08:54PM 42.5728 -75.7589 82° East 475 547 31,000  Climbing Boston Center
08:55PM 42.5903 -75.5847 82° East 480 552 31,000 -60 Level Boston Center
08:56PM 42.6056 -75.4022 83° East 480 552 30,900 -540 Descending Boston Center
08:57PM 42.6228 -75.2222 83° East 480 552 30,000 -960 Descending Boston Center
08:58PM 42.6397 -75.0367 83° East 480 552 29,000 -540 Descending Boston Center
08:59PM 42.6561 -74.8539 83° East 485 558 29,000  Level Boston Center
09:00PM 42.6619 -74.6736 87° East 478 550 29,000  Level Boston Center
09:01PM 42.6569 -74.4983 92° East 472 543 29,000 -960 Level Boston Center
09:02PM 42.6517 -74.3231 92° East 467 537 27,100 -1,980 Descending Boston Center
09:03PM 42.6439 -74.1478 93° East 467 537 25,100 -1,560 Descending Boston Center
09:04PM 42.6464 -73.9814 89° East 459 528 24,000 -600 Descending Boston Center
09:05PM 42.6589 -73.8150 84° East 446 513 24,000  Level Boston Center
09:06PM 42.6794 -73.6461 81° East 446 513 24,000 -600 Level Boston Center
09:07PM 42.6936 -73.4739 84° East 446 513 22,900 -1,320 Descending Boston Center
09:08PM 42.7097 -73.3047 83° East 446 513 21,400 -1,500 Descending Boston Center
09:09PM 42.7256 -73.1325 83° East 446 513 19,900 -1,200 Descending Boston Center
09:10PM 42.7389 -72.9686 84° East 446 513 19,000 -660 Descending Boston Center
09:11PM 42.7519 -72.8106 84° East 434 499 18,600 -900 Descending Boston Center
09:12PM 42.7628 -72.6719 84° East 422 486 17,200 -1,500 Descending Boston Center
09:13PM 42.7733 -72.5475 83° East 417 480 15,600 -1,980 Descending Boston Center
09:14PM 42.7881 -72.3778 83° East 394 453 13,300 -1,980 Descending Boston Center
09:15PM 42.8003 -72.2561 82° East 344 396 11,700 -1,680 Descending Boston Center
09:16PM 42.8189 -72.1344 78° East 310 357 10,000 -1,500 Descending Boston Center
09:17PM 42.8331 -72.0381 79° East 287 330 8,700 -1,260 Descending Boston Center
09:18PM 42.8286 -71.9306 93° East 267 307 7,500 -1,200 Descending Boston Center
09:19PM 42.8239 -71.8400 94° East 267 307 6,400 -1,260 Descending Boston Center
09:20PM 42.8150 -71.7353 97° East 261 300 5,000 -1,200 Descending Boston Center
09:21PM 42.8083 -71.6506 96° East 246 283 4,100 -540 Descending Boston Center
09:22PM 42.8033 -71.5600 94° East 229 264 4,000 -420 Descending Boston Center
09:23PM 42.7986 -71.4894 95° East 212 244 3,300 -900 Descending Boston Center
09:24PM 42.8022 -71.4072 87° East 197 227 2,300 -1,020 Descending Boston Center